sensor_id;sensor_type;location;lat;lon;timestamp;pressure;altitude;pressure_sealevel;temperature;humidity
16094;BME280;8151;47.824;12.092;2024-02-26T00:01:21;94568.94;;;5.90;58.92
16094;BME280;8151;47.824;12.092;2024-02-26T00:03:49;94558.38;;;5.84;58.76
16094;BME280;8151;47.824;12.092;2024-02-26T00:06:17;94566.78;;;5.79;58.55
16094;BME280;8151;47.824;12.092;2024-02-26T00:08:46;94557.66;;;5.75;59.16
16094;BME280;8151;47.824;12.092;2024-02-26T00:11:16;94549.97;;;5.73;58.94
16094;BME280;8151;47.824;12.092;2024-02-26T00:13:44;94558.84;;;5.72;58.96
16094;BME280;8151;47.824;12.092;2024-02-26T00:16:13;94548.69;;;5.69;58.87
16094;BME280;8151;47.824;12.092;2024-02-26T00:18:41;94556.94;;;5.66;59.01
16094;BME280;8151;47.824;12.092;2024-02-26T00:21:12;94542.56;;;5.62;58.62
16094;BME280;8151;47.824;12.092;2024-02-26T00:23:40;94537.34;;;5.62;58.53
16094;BME280;8151;47.824;12.092;2024-02-26T00:26:09;94537.34;;;5.62;58.45
16094;BME280;8151;47.824;12.092;2024-02-26T00:28:39;94537.34;;;5.62;58.76
16094;BME280;8151;47.824;12.092;2024-02-26T00:31:08;94539.28;;;5.60;58.76
16094;BME280;8151;47.824;12.092;2024-02-26T00:33:36;94534.44;;;5.57;58.90
16094;BME280;8151;47.824;12.092;2024-02-26T00:36:05;94538.66;;;5.58;58.96
16094;BME280;8151;47.824;12.092;2024-02-26T00:38:33;94544.47;;;5.53;58.43
16094;BME280;8151;47.824;12.092;2024-02-26T00:41:02;94546.00;;;5.48;58.34
16094;BME280;8151;47.824;12.092;2024-02-26T00:43:30;94546.56;;;5.43;59.25
16094;BME280;8151;47.824;12.092;2024-02-26T00:46:00;94544.28;;;5.40;58.67
16094;BME280;8151;47.824;12.092;2024-02-26T00:48:29;94537.78;;;5.36;58.79
16094;BME280;8151;47.824;12.092;2024-02-26T00:50:58;94535.59;;;5.25;59.29
16094;BME280;8151;47.824;12.092;2024-02-26T00:53:26;94539.94;;;5.03;59.96
16094;BME280;8151;47.824;12.092;2024-02-26T00:55:56;94537.91;;;4.75;60.00
16094;BME280;8151;47.824;12.092;2024-02-26T00:58:26;94528.13;;;4.46;61.00
16094;BME280;8151;47.824;12.092;2024-02-26T01:00:55;94544.19;;;4.20;61.78
16094;BME280;8151;47.824;12.092;2024-02-26T01:03:25;94543.31;;;4.04;62.01
16094;BME280;8151;47.824;12.092;2024-02-26T01:05:53;94540.28;;;3.92;62.23
16094;BME280;8151;47.824;12.092;2024-02-26T01:08:25;94548.03;;;3.78;62.73
16094;BME280;8151;47.824;12.092;2024-02-26T01:10:53;94552.66;;;3.67;62.77
16094;BME280;8151;47.824;12.092;2024-02-26T01:13:22;94550.25;;;3.58;62.87
16094;BME280;8151;47.824;12.092;2024-02-26T01:15:50;94557.28;;;3.57;62.86
16094;BME280;8151;47.824;12.092;2024-02-26T01:18:19;94557.66;;;3.46;62.95
16094;BME280;8151;47.824;12.092;2024-02-26T01:20:49;94551.63;;;3.45;63.21
16094;BME280;8151;47.824;12.092;2024-02-26T01:23:17;94543.09;;;3.51;63.08
16094;BME280;8151;47.824;12.092;2024-02-26T01:25:46;94556.28;;;3.58;63.14
16094;BME280;8151;47.824;12.092;2024-02-26T01:28:14;94550.38;;;3.64;62.86
16094;BME280;8151;47.824;12.092;2024-02-26T01:30:43;94546.09;;;3.71;62.58
16094;BME280;8151;47.824;12.092;2024-02-26T01:33:11;94551.00;;;3.74;62.51
16094;BME280;8151;47.824;12.092;2024-02-26T01:35:40;94548.38;;;3.74;62.72
16094;BME280;8151;47.824;12.092;2024-02-26T01:38:10;94550.66;;;3.78;62.65
16094;BME280;8151;47.824;12.092;2024-02-26T01:40:38;94553.41;;;3.84;62.53
16094;BME280;8151;47.824;12.092;2024-02-26T01:43:07;94547.53;;;3.82;62.57
16094;BME280;8151;47.824;12.092;2024-02-26T01:45:35;94558.81;;;3.83;62.76
16094;BME280;8151;47.824;12.092;2024-02-26T01:48:04;94554.63;;;3.65;63.12
16094;BME280;8151;47.824;12.092;2024-02-26T01:50:33;94551.41;;;3.55;63.69
16094;BME280;8151;47.824;12.092;2024-02-26T01:53:02;94552.69;;;3.59;63.59
16094;BME280;8151;47.824;12.092;2024-02-26T01:55:32;94562.31;;;3.59;63.52
16094;BME280;8151;47.824;12.092;2024-02-26T01:58:02;94549.66;;;3.47;63.84
16094;BME280;8151;47.824;12.092;2024-02-26T02:00:30;94552.28;;;3.39;63.94
16094;BME280;8151;47.824;12.092;2024-02-26T02:03:00;94550.03;;;3.28;64.36
16094;BME280;8151;47.824;12.092;2024-02-26T02:05:30;94551.34;;;3.24;64.67
16094;BME280;8151;47.824;12.092;2024-02-26T02:07:59;94550.22;;;3.18;64.77
16094;BME280;8151;47.824;12.092;2024-02-26T02:10:31;94554.97;;;3.14;64.75
16094;BME280;8151;47.824;12.092;2024-02-26T02:13:00;94548.94;;;3.06;65.08
16094;BME280;8151;47.824;12.092;2024-02-26T02:15:28;94548.44;;;3.02;65.30
16094;BME280;8151;47.824;12.092;2024-02-26T02:17:57;94538.81;;;3.11;65.04
16094;BME280;8151;47.824;12.092;2024-02-26T02:20:31;94541.25;;;3.12;65.10
16094;BME280;8151;47.824;12.092;2024-02-26T02:23:01;94547.63;;;3.10;65.20
16094;BME280;8151;47.824;12.092;2024-02-26T02:25:29;94538.66;;;3.12;65.06
16094;BME280;8151;47.824;12.092;2024-02-26T02:27:58;94537.97;;;3.19;65.35
16094;BME280;8151;47.824;12.092;2024-02-26T02:30:29;94538.47;;;3.22;65.14
16094;BME280;8151;47.824;12.092;2024-02-26T02:32:58;94538.47;;;3.22;65.13
16094;BME280;8151;47.824;12.092;2024-02-26T02:35:28;94531.63;;;3.13;65.31
16094;BME280;8151;47.824;12.092;2024-02-26T02:37:57;94533.13;;;2.99;65.85
16094;BME280;8151;47.824;12.092;2024-02-26T02:40:25;94524.63;;;2.97;66.20
16094;BME280;8151;47.824;12.092;2024-02-26T02:42:54;94533.59;;;3.11;65.76
16094;BME280;8151;47.824;12.092;2024-02-26T02:45:22;94516.91;;;3.20;65.78
16094;BME280;8151;47.824;12.092;2024-02-26T02:47:51;94529.28;;;3.26;65.52
16094;BME280;8151;47.824;12.092;2024-02-26T02:50:20;94525.38;;;3.22;65.60
16094;BME280;8151;47.824;12.092;2024-02-26T02:52:50;94524.63;;;3.05;65.93
16094;BME280;8151;47.824;12.092;2024-02-26T02:55:18;94536.72;;;2.90;66.17
16094;BME280;8151;47.824;12.092;2024-02-26T02:57:46;94529.06;;;2.88;66.62
16094;BME280;8151;47.824;12.092;2024-02-26T03:00:15;94527.09;;;2.82;66.71
16094;BME280;8151;47.824;12.092;2024-02-26T03:02:44;94532.66;;;2.79;66.79
16094;BME280;8151;47.824;12.092;2024-02-26T03:05:13;94528.09;;;2.81;66.77
16094;BME280;8151;47.824;12.092;2024-02-26T03:07:42;94528.56;;;2.85;66.71
16094;BME280;8151;47.824;12.092;2024-02-26T03:10:11;94526.13;;;2.83;66.60
16094;BME280;8151;47.824;12.092;2024-02-26T03:12:40;94529.06;;;2.80;66.76
16094;BME280;8151;47.824;12.092;2024-02-26T03:15:09;94527.94;;;2.74;66.64
16094;BME280;8151;47.824;12.092;2024-02-26T03:17:38;94528.91;;;2.65;67.00
16094;BME280;8151;47.824;12.092;2024-02-26T03:20:08;94515.06;;;2.56;67.08
16094;BME280;8151;47.824;12.092;2024-02-26T03:22:38;94518.66;;;2.47;67.25
16094;BME280;8151;47.824;12.092;2024-02-26T03:25:08;94520.28;;;2.40;67.51
16094;BME280;8151;47.824;12.092;2024-02-26T03:27:37;94513.28;;;2.41;67.47
16094;BME280;8151;47.824;12.092;2024-02-26T03:30:07;94519.81;;;2.45;67.51
16094;BME280;8151;47.824;12.092;2024-02-26T03:32:35;94521.25;;;2.55;67.35
16094;BME280;8151;47.824;12.092;2024-02-26T03:35:04;94524.19;;;2.69;67.04
16094;BME280;8151;47.824;12.092;2024-02-26T03:37:34;94521.91;;;2.74;67.00
16094;BME280;8151;47.824;12.092;2024-02-26T03:40:03;94529.91;;;2.72;67.06
16094;BME280;8151;47.824;12.092;2024-02-26T03:42:32;94528.44;;;2.70;67.11
16094;BME280;8151;47.824;12.092;2024-02-26T03:45:02;94524.69;;;2.64;67.19
16094;BME280;8151;47.824;12.092;2024-02-26T03:47:30;94531.03;;;2.62;67.47
16094;BME280;8151;47.824;12.092;2024-02-26T03:49:59;94528.44;;;2.70;67.46
16094;BME280;8151;47.824;12.092;2024-02-26T03:52:27;94520.59;;;2.70;67.39
16094;BME280;8151;47.824;12.092;2024-02-26T03:54:56;94519.94;;;2.76;67.39
16094;BME280;8151;47.824;12.092;2024-02-26T03:57:24;94518.13;;;2.85;67.26
16094;BME280;8151;47.824;12.092;2024-02-26T03:59:53;94516.66;;;2.82;67.27
16094;BME280;8151;47.824;12.092;2024-02-26T04:02:23;94518.78;;;2.79;67.26
16094;BME280;8151;47.824;12.092;2024-02-26T04:04:52;94514.84;;;2.83;67.25
16094;BME280;8151;47.824;12.092;2024-02-26T04:07:21;94510.78;;;2.80;67.37
16094;BME280;8151;47.824;12.092;2024-02-26T04:09:49;94520.25;;;2.73;67.63
16094;BME280;8151;47.824;12.092;2024-02-26T04:12:17;94521.09;;;2.73;67.61
16094;BME280;8151;47.824;12.092;2024-02-26T04:14:46;94516.19;;;2.70;67.58
16094;BME280;8151;47.824;12.092;2024-02-26T04:17:14;94523.88;;;2.72;67.80
16094;BME280;8151;47.824;12.092;2024-02-26T04:19:44;94519.59;;;2.79;67.42
16094;BME280;8151;47.824;12.092;2024-02-26T04:22:12;94520.91;;;2.75;67.60
16094;BME280;8151;47.824;12.092;2024-02-26T04:24:41;94516.66;;;2.82;67.54
16094;BME280;8151;47.824;12.092;2024-02-26T04:27:10;94525.78;;;2.86;67.40
16094;BME280;8151;47.824;12.092;2024-02-26T04:29:38;94523.34;;;2.85;67.53
16094;BME280;8151;47.824;12.092;2024-02-26T04:32:06;94524.81;;;2.79;67.44
16094;BME280;8151;47.824;12.092;2024-02-26T04:34:35;94534.31;;;2.72;67.63
16094;BME280;8151;47.824;12.092;2024-02-26T04:37:05;94529.41;;;2.61;67.88
16094;BME280;8151;47.824;12.092;2024-02-26T04:39:34;94530.06;;;2.63;68.18
16094;BME280;8151;47.824;12.092;2024-02-26T04:42:02;94531.84;;;2.70;67.79
16094;BME280;8151;47.824;12.092;2024-02-26T04:44:31;94531.03;;;2.78;67.56
16094;BME280;8151;47.824;12.092;2024-02-26T04:47:00;94519.41;;;2.89;67.51
16094;BME280;8151;47.824;12.092;2024-02-26T04:49:29;94519.75;;;2.94;67.41
16094;BME280;8151;47.824;12.092;2024-02-26T04:51:58;94517.94;;;2.94;67.30
16094;BME280;8151;47.824;12.092;2024-02-26T04:54:27;94521.84;;;2.90;67.37
16094;BME280;8151;47.824;12.092;2024-02-26T04:56:55;94524.50;;;2.82;67.67
16094;BME280;8151;47.824;12.092;2024-02-26T04:59:23;94531.00;;;2.86;67.67
16094;BME280;8151;47.824;12.092;2024-02-26T05:01:52;94529.72;;;2.82;67.72
16094;BME280;8151;47.824;12.092;2024-02-26T05:04:20;94533.66;;;2.78;67.73
16094;BME280;8151;47.824;12.092;2024-02-26T05:06:49;94526.63;;;2.70;67.66
16094;BME280;8151;47.824;12.092;2024-02-26T05:09:18;94524.19;;;2.61;68.19
16094;BME280;8151;47.824;12.092;2024-02-26T05:11:48;94523.72;;;2.57;68.20
16094;BME280;8151;47.824;12.092;2024-02-26T05:14:16;94526.00;;;2.60;68.06
16094;BME280;8151;47.824;12.092;2024-02-26T05:16:45;94525.66;;;2.63;68.17
16094;BME280;8151;47.824;12.092;2024-02-26T05:19:14;94519.31;;;2.66;67.92
16094;BME280;8151;47.824;12.092;2024-02-26T05:21:42;94521.56;;;2.69;67.82
16094;BME280;8151;47.824;12.092;2024-02-26T05:24:11;94520.41;;;2.71;67.83
16094;BME280;8151;47.824;12.092;2024-02-26T05:26:42;94519.59;;;2.71;67.65
16094;BME280;8151;47.824;12.092;2024-02-26T05:29:12;94522.56;;;2.76;67.79
16094;BME280;8151;47.824;12.092;2024-02-26T05:31:42;94519.59;;;2.79;67.57
16094;BME280;8151;47.824;12.092;2024-02-26T05:34:10;94527.78;;;2.76;67.65
16094;BME280;8151;47.824;12.092;2024-02-26T05:36:39;94525.47;;;2.73;67.72
16094;BME280;8151;47.824;12.092;2024-02-26T05:39:07;94530.69;;;2.73;67.57
16094;BME280;8151;47.824;12.092;2024-02-26T05:41:43;94529.91;;;2.72;67.79
16094;BME280;8151;47.824;12.092;2024-02-26T05:44:13;94530.06;;;2.71;67.55
16094;BME280;8151;47.824;12.092;2024-02-26T05:46:43;94532.19;;;2.67;67.80
16094;BME280;8151;47.824;12.092;2024-02-26T05:49:11;94537.88;;;2.71;67.70
16094;BME280;8151;47.824;12.092;2024-02-26T05:51:40;94537.59;;;2.66;67.89
16094;BME280;8151;47.824;12.092;2024-02-26T05:54:08;94548.66;;;2.60;67.91
16094;BME280;8151;47.824;12.092;2024-02-26T05:56:37;94546.88;;;2.60;67.94
16094;BME280;8151;47.824;12.092;2024-02-26T05:59:07;94546.69;;;2.62;67.87
16094;BME280;8151;47.824;12.092;2024-02-26T06:01:37;94561.06;;;2.49;68.09
16094;BME280;8151;47.824;12.092;2024-02-26T06:04:05;94565.97;;;2.52;68.35
16094;BME280;8151;47.824;12.092;2024-02-26T06:06:34;94566.28;;;2.58;68.43
16094;BME280;8151;47.824;12.092;2024-02-26T06:09:05;94573.47;;;2.55;68.23
16094;BME280;8151;47.824;12.092;2024-02-26T06:11:33;94579.16;;;2.67;68.40
16094;BME280;8151;47.824;12.092;2024-02-26T06:14:02;94570.53;;;2.75;68.26
16094;BME280;8151;47.824;12.092;2024-02-26T06:16:30;94575.13;;;2.81;68.31
16094;BME280;8151;47.824;12.092;2024-02-26T06:19:01;94572.97;;;2.85;68.27
16094;BME280;8151;47.824;12.092;2024-02-26T06:21:33;94580.63;;;2.86;68.38
16094;BME280;8151;47.824;12.092;2024-02-26T06:24:02;94572.47;;;2.89;68.47
16094;BME280;8151;47.824;12.092;2024-02-26T06:26:30;94570.66;;;2.98;68.44
16094;BME280;8151;47.824;12.092;2024-02-26T06:29:00;94572.94;;;3.01;68.33
16094;BME280;8151;47.824;12.092;2024-02-26T06:31:29;94572.78;;;3.03;68.39
16094;BME280;8151;47.824;12.092;2024-02-26T06:33:57;94581.28;;;3.05;68.46
16094;BME280;8151;47.824;12.092;2024-02-26T06:36:27;94585.84;;;3.03;68.50
16094;BME280;8151;47.824;12.092;2024-02-26T06:38:56;94582.75;;;3.07;68.49
16094;BME280;8151;47.824;12.092;2024-02-26T06:41:24;94591.56;;;3.14;68.51
16094;BME280;8151;47.824;12.092;2024-02-26T06:43:54;94595.63;;;3.17;68.44
16094;BME280;8151;47.824;12.092;2024-02-26T06:46:23;94598.88;;;3.19;68.48
16094;BME280;8151;47.824;12.092;2024-02-26T06:48:53;94602.78;;;3.23;68.42
16094;BME280;8151;47.824;12.092;2024-02-26T06:51:22;94599.84;;;3.26;68.73
16094;BME280;8151;47.824;12.092;2024-02-26T06:53:52;94592.00;;;3.34;68.70
16094;BME280;8151;47.824;12.092;2024-02-26T06:56:23;94603.91;;;3.45;68.56
16094;BME280;8151;47.824;12.092;2024-02-26T06:58:51;94606.00;;;3.50;68.33
16094;BME280;8151;47.824;12.092;2024-02-26T07:01:20;94605.00;;;3.59;68.05
16094;BME280;8151;47.824;12.092;2024-02-26T07:03:48;94611.84;;;3.60;68.32
16094;BME280;8151;47.824;12.092;2024-02-26T07:06:17;94615.50;;;3.43;68.74
16094;BME280;8151;47.824;12.092;2024-02-26T07:08:45;94613.22;;;3.31;68.80
16094;BME280;8151;47.824;12.092;2024-02-26T07:11:15;94616.50;;;3.25;69.06
16094;BME280;8151;47.824;12.092;2024-02-26T07:13:46;94615.03;;;3.31;69.27
16094;BME280;8151;47.824;12.092;2024-02-26T07:16:16;94621.22;;;3.38;68.94
16094;BME280;8151;47.824;12.092;2024-02-26T07:18:44;94627.44;;;3.37;68.98
16094;BME280;8151;47.824;12.092;2024-02-26T07:21:13;94618.47;;;3.40;69.14
16094;BME280;8151;47.824;12.092;2024-02-26T07:23:41;94624.31;;;3.50;69.47
16094;BME280;8151;47.824;12.092;2024-02-26T07:26:10;94619.84;;;3.59;68.93
16094;BME280;8151;47.824;12.092;2024-02-26T07:28:41;94619.69;;;3.68;69.05
16094;BME280;8151;47.824;12.092;2024-02-26T07:31:09;94625.22;;;3.73;69.26
16094;BME280;8151;47.824;12.092;2024-02-26T07:33:38;94622.91;;;3.79;69.11
16094;BME280;8151;47.824;12.092;2024-02-26T07:36:06;94624.53;;;3.88;69.24
16094;BME280;8151;47.824;12.092;2024-02-26T07:38:35;94618.94;;;3.91;69.15
16094;BME280;8151;47.824;12.092;2024-02-26T07:41:11;94612.09;;;3.90;69.34
16094;BME280;8151;47.824;12.092;2024-02-26T07:43:41;94614.97;;;3.95;69.14
16094;BME280;8151;47.824;12.092;2024-02-26T07:46:11;94616.59;;;4.04;69.08
16094;BME280;8151;47.824;12.092;2024-02-26T07:48:39;94613.28;;;4.10;69.29
16094;BME280;8151;47.824;12.092;2024-02-26T07:51:12;94618.94;;;4.22;69.57
16094;BME280;8151;47.824;12.092;2024-02-26T07:53:41;94629.03;;;4.33;69.31
16094;BME280;8151;47.824;12.092;2024-02-26T07:56:10;94639.75;;;4.47;69.27
16094;BME280;8151;47.824;12.092;2024-02-26T07:58:38;94640.53;;;4.56;68.93
16094;BME280;8151;47.824;12.092;2024-02-26T08:01:08;94660.31;;;4.58;68.71
16094;BME280;8151;47.824;12.092;2024-02-26T08:03:37;94665.38;;;4.60;69.47
16094;BME280;8151;47.824;12.092;2024-02-26T08:06:06;94661.69;;;4.69;69.29
16094;BME280;8151;47.824;12.092;2024-02-26T08:08:36;94664.47;;;4.76;68.99
16094;BME280;8151;47.824;12.092;2024-02-26T08:11:05;94668.19;;;4.81;69.15
16094;BME280;8151;47.824;12.092;2024-02-26T08:13:33;94661.06;;;4.90;69.46
16094;BME280;8151;47.824;12.092;2024-02-26T08:16:02;94664.72;;;5.04;69.07
16094;BME280;8151;47.824;12.092;2024-02-26T08:18:32;94659.72;;;5.17;69.05
16094;BME280;8151;47.824;12.092;2024-02-26T08:21:00;94651.59;;;5.27;69.39
16094;BME280;8151;47.824;12.092;2024-02-26T08:23:30;94649.56;;;5.37;68.68
16094;BME280;8151;47.824;12.092;2024-02-26T08:25:58;94645.66;;;5.48;68.96
16094;BME280;8151;47.824;12.092;2024-02-26T08:28:27;94650.03;;;5.56;69.05
16094;BME280;8151;47.824;12.092;2024-02-26T08:30:55;94652.31;;;5.59;69.08
16094;BME280;8151;47.824;12.092;2024-02-26T08:33:24;94657.34;;;5.60;69.04
16094;BME280;8151;47.824;12.092;2024-02-26T08:35:54;94660.25;;;5.65;69.33
16094;BME280;8151;47.824;12.092;2024-02-26T08:38:22;94668.03;;;5.73;69.03
16094;BME280;8151;47.824;12.092;2024-02-26T08:40:51;94661.25;;;5.79;69.52
16094;BME280;8151;47.824;12.092;2024-02-26T08:43:19;94653.66;;;5.84;69.75
16094;BME280;8151;47.824;12.092;2024-02-26T08:45:48;94649.97;;;5.94;69.45
16094;BME280;8151;47.824;12.092;2024-02-26T08:48:16;94652.69;;;6.00;69.31
16094;BME280;8151;47.824;12.092;2024-02-26T08:50:45;94657.22;;;6.06;68.95
16094;BME280;8151;47.824;12.092;2024-02-26T08:53:15;94652.22;;;6.11;69.47
16094;BME280;8151;47.824;12.092;2024-02-26T08:55:53;94653.94;;;6.19;69.15
16094;BME280;8151;47.824;12.092;2024-02-26T08:58:22;94652.22;;;6.26;68.83
16094;BME280;8151;47.824;12.092;2024-02-26T09:00:50;94647.03;;;6.33;68.79
16094;BME280;8151;47.824;12.092;2024-02-26T09:03:19;94645.84;;;6.36;68.91
16094;BME280;8151;47.824;12.092;2024-02-26T09:05:47;94649.94;;;6.38;68.89
16094;BME280;8151;47.824;12.092;2024-02-26T09:08:17;94643.94;;;6.44;69.09
16094;BME280;8151;47.824;12.092;2024-02-26T09:10:46;94650.28;;;6.50;69.30
16094;BME280;8151;47.824;12.092;2024-02-26T09:13:14;94656.22;;;6.59;69.05
16094;BME280;8151;47.824;12.092;2024-02-26T09:15:43;94649.03;;;6.67;68.96
16094;BME280;8151;47.824;12.092;2024-02-26T09:18:11;94645.47;;;6.75;68.46
16094;BME280;8151;47.824;12.092;2024-02-26T09:20:41;94661.50;;;6.80;68.76
16094;BME280;8151;47.824;12.092;2024-02-26T09:23:09;94649.41;;;6.86;68.44
16094;BME280;8151;47.824;12.092;2024-02-26T09:25:39;94653.28;;;6.90;68.33
16094;BME280;8151;47.824;12.092;2024-02-26T09:28:07;94650.75;;;6.97;68.44
16094;BME280;8151;47.824;12.092;2024-02-26T09:30:36;94653.25;;;7.05;68.26
16094;BME280;8151;47.824;12.092;2024-02-26T09:33:05;94657.38;;;7.14;67.84
16094;BME280;8151;47.824;12.092;2024-02-26T09:35:34;94663.75;;;7.26;67.60
16094;BME280;8151;47.824;12.092;2024-02-26T09:38:03;94665.88;;;7.38;67.48
16094;BME280;8151;47.824;12.092;2024-02-26T09:40:33;94665.97;;;7.51;67.35
16094;BME280;8151;47.824;12.092;2024-02-26T09:43:04;94664.41;;;7.57;67.06
16094;BME280;8151;47.824;12.092;2024-02-26T09:45:35;94657.31;;;7.57;66.95
16094;BME280;8151;47.824;12.092;2024-02-26T09:48:04;94657.31;;;7.57;67.19
16094;BME280;8151;47.824;12.092;2024-02-26T09:50:36;94660.75;;;7.58;67.21
16094;BME280;8151;47.824;12.092;2024-02-26T09:53:05;94660.19;;;7.62;66.94
16094;BME280;8151;47.824;12.092;2024-02-26T09:55:37;94658.78;;;7.66;66.81
16094;BME280;8151;47.824;12.092;2024-02-26T09:58:07;94662.66;;;7.71;66.49
16094;BME280;8151;47.824;12.092;2024-02-26T10:00:37;94659.06;;;7.78;66.60
16094;BME280;8151;47.824;12.092;2024-02-26T10:03:09;94659.94;;;7.85;66.28
16094;BME280;8151;47.824;12.092;2024-02-26T10:05:43;94657.16;;;7.94;66.05
16094;BME280;8151;47.824;12.092;2024-02-26T10:08:13;94657.16;;;8.00;66.05
16094;BME280;8151;47.824;12.092;2024-02-26T10:10:42;94663.91;;;8.09;65.92
16094;BME280;8151;47.824;12.092;2024-02-26T10:13:12;94654.22;;;8.17;65.49
16094;BME280;8151;47.824;12.092;2024-02-26T10:15:40;94656.31;;;8.28;65.43
16094;BME280;8151;47.824;12.092;2024-02-26T10:18:09;94647.22;;;8.37;65.81
16094;BME280;8151;47.824;12.092;2024-02-26T10:20:37;94655.00;;;8.45;65.39
16094;BME280;8151;47.824;12.092;2024-02-26T10:23:06;94653.19;;;8.53;65.33
16094;BME280;8151;47.824;12.092;2024-02-26T10:25:35;94650.59;;;8.66;64.97
16094;BME280;8151;47.824;12.092;2024-02-26T10:28:04;94648.19;;;8.78;65.28
16094;BME280;8151;47.824;12.092;2024-02-26T10:30:36;94644.78;;;8.91;64.69
16094;BME280;8151;47.824;12.092;2024-02-26T10:33:07;94645.00;;;9.02;64.66
16094;BME280;8151;47.824;12.092;2024-02-26T10:35:36;94643.38;;;9.15;64.18
16094;BME280;8151;47.824;12.092;2024-02-26T10:38:07;94640.94;;;9.26;64.16
16094;BME280;8151;47.824;12.092;2024-02-26T10:40:36;94636.09;;;9.37;64.12
16094;BME280;8151;47.824;12.092;2024-02-26T10:43:05;94627.56;;;9.48;64.32
16094;BME280;8151;47.824;12.092;2024-02-26T10:45:35;94619.00;;;9.59;63.71
16094;BME280;8151;47.824;12.092;2024-02-26T10:48:05;94624.72;;;9.70;63.37
16094;BME280;8151;47.824;12.092;2024-02-26T10:50:38;94624.50;;;9.78;63.00
16094;BME280;8151;47.824;12.092;2024-02-26T10:53:13;94624.25;;;9.86;63.01
16094;BME280;8151;47.824;12.092;2024-02-26T10:55:48;94611.84;;;9.93;62.63
16094;BME280;8151;47.824;12.092;2024-02-26T10:58:17;94621.59;;;9.99;63.03
16094;BME280;8151;47.824;12.092;2024-02-26T11:00:49;94612.22;;;10.03;62.07
16094;BME280;8151;47.824;12.092;2024-02-26T11:03:19;94611.38;;;10.10;62.11
16094;BME280;8151;47.824;12.092;2024-02-26T11:05:49;94618.31;;;10.11;62.35
16094;BME280;8151;47.824;12.092;2024-02-26T11:08:18;94608.56;;;10.11;61.45
16094;BME280;8151;47.824;12.092;2024-02-26T11:10:48;94610.38;;;10.11;61.96
16094;BME280;8151;47.824;12.092;2024-02-26T11:13:19;94608.34;;;10.13;61.69
16094;BME280;8151;47.824;12.092;2024-02-26T11:15:51;94595.94;;;10.13;61.85
16094;BME280;8151;47.824;12.092;2024-02-26T11:18:22;94599.78;;;10.17;61.18
16094;BME280;8151;47.824;12.092;2024-02-26T11:20:52;94595.94;;;10.20;61.10
16094;BME280;8151;47.824;12.092;2024-02-26T11:23:24;94598.94;;;10.23;61.59
16094;BME280;8151;47.824;12.092;2024-02-26T11:25:54;94604.63;;;10.27;61.31
16094;BME280;8151;47.824;12.092;2024-02-26T11:28:27;94599.16;;;10.35;61.16
16094;BME280;8151;47.824;12.092;2024-02-26T11:30:59;94599.91;;;10.42;60.70
16094;BME280;8151;47.824;12.092;2024-02-26T11:33:29;94602.34;;;10.51;61.32
16094;BME280;8151;47.824;12.092;2024-02-26T11:35:57;94595.16;;;10.58;61.15
16094;BME280;8151;47.824;12.092;2024-02-26T11:38:26;94599.41;;;10.66;60.63
16094;BME280;8151;47.824;12.092;2024-02-26T11:40:55;94597.53;;;10.73;60.88
16094;BME280;8151;47.824;12.092;2024-02-26T11:43:49;94593.38;;;10.83;60.74
16094;BME280;8151;47.824;12.092;2024-02-26T11:46:29;94589.44;;;10.99;60.69
16094;BME280;8151;47.824;12.092;2024-02-26T11:48:59;94596.63;;;11.17;60.47
16094;BME280;8151;47.824;12.092;2024-02-26T11:51:32;94588.72;;;11.36;60.17
16094;BME280;8151;47.824;12.092;2024-02-26T11:54:01;94581.25;;;11.51;60.62
16094;BME280;8151;47.824;12.092;2024-02-26T11:56:33;94582.56;;;11.67;60.19
16094;BME280;8151;47.824;12.092;2024-02-26T11:59:04;94581.19;;;11.83;60.30
16094;BME280;8151;47.824;12.092;2024-02-26T12:01:53;94585.31;;;11.97;60.05
16094;BME280;8151;47.824;12.092;2024-02-26T12:04:24;94583.19;;;12.06;60.72
16094;BME280;8151;47.824;12.092;2024-02-26T12:06:55;94584.28;;;12.17;60.75
16094;BME280;8151;47.824;12.092;2024-02-26T12:09:32;94577.81;;;12.31;60.56
16094;BME280;8151;47.824;12.092;2024-02-26T12:12:01;94580.00;;;12.53;60.33
16094;BME280;8151;47.824;12.092;2024-02-26T12:14:33;94581.41;;;12.67;59.92
16094;BME280;8151;47.824;12.092;2024-02-26T12:17:04;94583.16;;;12.73;59.87
16094;BME280;8151;47.824;12.092;2024-02-26T12:19:35;94571.19;;;12.83;60.25
16094;BME280;8151;47.824;12.092;2024-02-26T12:22:08;94566.16;;;12.93;60.04
16094;BME280;8151;47.824;12.092;2024-02-26T12:24:36;94568.03;;;13.04;59.95
16094;BME280;8151;47.824;12.092;2024-02-26T12:27:05;94561.94;;;13.15;59.77
16094;BME280;8151;47.824;12.092;2024-02-26T12:29:34;94564.84;;;13.26;59.62
16094;BME280;8151;47.824;12.092;2024-02-26T12:32:04;94559.56;;;13.37;59.38
16094;BME280;8151;47.824;12.092;2024-02-26T12:34:34;94560.63;;;13.48;59.51
16094;BME280;8151;47.824;12.092;2024-02-26T12:37:03;94562.91;;;13.56;59.23
16094;BME280;8151;47.824;12.092;2024-02-26T12:39:34;94569.50;;;13.66;59.14
16094;BME280;8151;47.824;12.092;2024-02-26T12:42:03;94562.81;;;13.75;59.14
16094;BME280;8151;47.824;12.092;2024-02-26T12:44:31;94563.63;;;13.75;58.95
16094;BME280;8151;47.824;12.092;2024-02-26T12:47:00;94559.22;;;13.69;59.12
16094;BME280;8151;47.824;12.092;2024-02-26T12:49:31;94563.41;;;13.65;59.25
16094;BME280;8151;47.824;12.092;2024-02-26T12:52:01;94574.03;;;13.65;59.27
16094;BME280;8151;47.824;12.092;2024-02-26T12:54:31;94576.91;;;13.64;59.12
16094;BME280;8151;47.824;12.092;2024-02-26T12:57:01;94576.78;;;13.58;59.06
16094;BME280;8151;47.824;12.092;2024-02-26T12:59:31;94579.91;;;13.55;59.11
16094;BME280;8151;47.824;12.092;2024-02-26T13:02:01;94577.25;;;13.55;58.97
16094;BME280;8151;47.824;12.092;2024-02-26T13:04:35;94579.44;;;13.58;59.00
16094;BME280;8151;47.824;12.092;2024-02-26T13:07:04;94578.41;;;13.59;59.12
16094;BME280;8151;47.824;12.092;2024-02-26T13:09:33;94579.22;;;13.72;58.64
16094;BME280;8151;47.824;12.092;2024-02-26T13:12:04;94576.44;;;13.90;58.40
16094;BME280;8151;47.824;12.092;2024-02-26T13:14:33;94582.31;;;14.04;58.23
16094;BME280;8151;47.824;12.092;2024-02-26T13:17:02;94590.84;;;14.18;57.85
16094;BME280;8151;47.824;12.092;2024-02-26T13:19:31;94593.25;;;14.31;57.77
16094;BME280;8151;47.824;12.092;2024-02-26T13:22:05;94593.69;;;14.40;56.71